sensor_id;sensor_type;location;lat;lon;timestamp;P1;durP1;ratioP1;P2;durP2;ratioP2
54909;SDS011;63189;51.240;9.964;2023-05-14T00:00:13;4.75;;;3.85;;
54909;SDS011;63189;51.240;9.964;2023-05-14T00:02:41;4.28;;;3.88;;
54909;SDS011;63189;51.240;9.964;2023-05-14T00:05:08;4.38;;;3.83;;
54909;SDS011;63189;51.240;9.964;2023-05-14T00:07:34;4.13;;;3.72;;
54909;SDS011;63189;51.240;9.964;2023-05-14T00:10:00;4.70;;;4.00;;
54909;SDS011;63189;51.240;9.964;2023-05-14T00:12:26;5.90;;;4.10;;
54909;SDS011;63189;51.240;9.964;2023-05-14T00:14:52;5.07;;;4.18;;
54909;SDS011;63189;51.240;9.964;2023-05-14T00:17:19;5.30;;;4.20;;
54909;SDS011;63189;51.240;9.964;2023-05-14T00:19:44;4.40;;;4.00;;
54909;SDS011;63189;51.240;9.964;2023-05-14T00:22:10;6.53;;;4.20;;
54909;SDS011;63189;51.240;9.964;2023-05-14T00:24:35;5.90;;;4.47;;
54909;SDS011;63189;51.240;9.964;2023-05-14T00:27:01;5.05;;;4.20;;
54909;SDS011;63189;51.240;9.964;2023-05-14T00:29:27;5.00;;;4.50;;
54909;SDS011;63189;51.240;9.964;2023-05-14T00:31:53;5.20;;;4.70;;
54909;SDS011;63189;51.240;9.964;2023-05-14T00:34:18;5.78;;;3.65;;
54909;SDS011;63189;51.240;9.964;2023-05-14T00:36:43;5.55;;;4.00;;
54909;SDS011;63189;51.240;9.964;2023-05-14T00:39:09;4.85;;;4.25;;
54909;SDS011;63189;51.240;9.964;2023-05-14T00:41:34;4.40;;;4.00;;
54909;SDS011;63189;51.240;9.964;2023-05-14T00:44:00;5.65;;;4.40;;
54909;SDS011;63189;51.240;9.964;2023-05-14T00:46:26;4.93;;;4.43;;
54909;SDS011;63189;51.240;9.964;2023-05-14T00:48:52;5.97;;;5.38;;
54909;SDS011;63189;51.240;9.964;2023-05-14T00:51:18;6.65;;;4.57;;
54909;SDS011;63189;51.240;9.964;2023-05-14T00:53:44;6.18;;;5.05;;
54909;SDS011;63189;51.240;9.964;2023-05-14T00:56:10;7.43;;;4.45;;
54909;SDS011;63189;51.240;9.964;2023-05-14T00:58:38;5.63;;;4.90;;
54909;SDS011;63189;51.240;9.964;2023-05-14T01:01:04;5.75;;;4.85;;
54909;SDS011;63189;51.240;9.964;2023-05-14T01:03:30;5.85;;;4.95;;
54909;SDS011;63189;51.240;9.964;2023-05-14T01:17:13;5.53;;;4.97;;
54909;SDS011;63189;51.240;9.964;2023-05-14T01:19:44;4.90;;;4.32;;
54909;SDS011;63189;51.240;9.964;2023-05-14T01:22:12;7.75;;;4.85;;
54909;SDS011;63189;51.240;9.964;2023-05-14T01:24:38;8.27;;;5.07;;
54909;SDS011;63189;51.240;9.964;2023-05-14T01:32:33;5.20;;;4.63;;
54909;SDS011;63189;51.240;9.964;2023-05-14T01:34:59;5.53;;;5.00;;
54909;SDS011;63189;51.240;9.964;2023-05-14T01:37:26;4.82;;;4.32;;
54909;SDS011;63189;51.240;9.964;2023-05-14T01:39:54;5.00;;;4.50;;
54909;SDS011;63189;51.240;9.964;2023-05-14T01:42:20;5.30;;;4.20;;
54909;SDS011;63189;51.240;9.964;2023-05-14T01:44:45;4.85;;;4.45;;
54909;SDS011;63189;51.240;9.964;2023-05-14T01:47:12;6.13;;;4.45;;
54909;SDS011;63189;51.240;9.964;2023-05-14T01:49:37;6.28;;;4.05;;
54909;SDS011;63189;51.240;9.964;2023-05-14T01:52:03;5.45;;;4.78;;
54909;SDS011;63189;51.240;9.964;2023-05-14T01:54:28;4.90;;;4.38;;
54909;SDS011;63189;51.240;9.964;2023-05-14T01:56:53;4.82;;;4.32;;
54909;SDS011;63189;51.240;9.964;2023-05-14T01:59:19;6.20;;;4.65;;
54909;SDS011;63189;51.240;9.964;2023-05-14T02:01:44;5.78;;;5.13;;
54909;SDS011;63189;51.240;9.964;2023-05-14T02:04:10;5.65;;;5.05;;
54909;SDS011;63189;51.240;9.964;2023-05-14T02:06:35;6.13;;;4.68;;
54909;SDS011;63189;51.240;9.964;2023-05-14T02:09:00;5.13;;;4.47;;
54909;SDS011;63189;51.240;9.964;2023-05-14T02:11:26;4.93;;;4.38;;
54909;SDS011;63189;51.240;9.964;2023-05-14T02:13:51;6.28;;;5.15;;
54909;SDS011;63189;51.240;9.964;2023-05-14T02:16:17;6.57;;;5.03;;
54909;SDS011;63189;51.240;9.964;2023-05-14T02:18:43;5.28;;;4.75;;
54909;SDS011;63189;51.240;9.964;2023-05-14T02:21:08;5.97;;;5.28;;
54909;SDS011;63189;51.240;9.964;2023-05-14T02:23:33;7.38;;;5.35;;
54909;SDS011;63189;51.240;9.964;2023-05-14T02:25:59;5.82;;;5.22;;
54909;SDS011;63189;51.240;9.964;2023-05-14T02:28:24;5.50;;;4.90;;
54909;SDS011;63189;51.240;9.964;2023-05-14T02:30:49;5.78;;;5.18;;
54909;SDS011;63189;51.240;9.964;2023-05-14T02:33:15;6.38;;;5.45;;
54909;SDS011;63189;51.240;9.964;2023-05-14T02:35:40;5.65;;;5.05;;
54909;SDS011;63189;51.240;9.964;2023-05-14T02:38:05;6.05;;;5.35;;
54909;SDS011;63189;51.240;9.964;2023-05-14T02:40:31;7.50;;;5.80;;
54909;SDS011;63189;51.240;9.964;2023-05-14T02:42:56;5.88;;;5.28;;
54909;SDS011;63189;51.240;9.964;2023-05-14T02:45:21;8.23;;;5.68;;
54909;SDS011;63189;51.240;9.964;2023-05-14T02:47:48;5.97;;;5.32;;
54909;SDS011;63189;51.240;9.964;2023-05-14T02:50:15;5.38;;;4.72;;
54909;SDS011;63189;51.240;9.964;2023-05-14T02:52:40;5.38;;;4.88;;
54909;SDS011;63189;51.240;9.964;2023-05-14T02:55:05;5.68;;;5.07;;
54909;SDS011;63189;51.240;9.964;2023-05-14T02:57:31;4.90;;;4.38;;
54909;SDS011;63189;51.240;9.964;2023-05-14T02:59:57;6.20;;;4.88;;
54909;SDS011;63189;51.240;9.964;2023-05-14T03:02:22;5.85;;;4.82;;
54909;SDS011;63189;51.240;9.964;2023-05-14T03:04:47;6.32;;;5.43;;
54909;SDS011;63189;51.240;9.964;2023-05-14T03:07:21;5.88;;;4.82;;
54909;SDS011;63189;51.240;9.964;2023-05-14T03:09:46;5.53;;;5.03;;
54909;SDS011;63189;51.240;9.964;2023-05-14T03:12:12;4.88;;;4.38;;
54909;SDS011;63189;51.240;9.964;2023-05-14T03:14:38;5.90;;;4.38;;
54909;SDS011;63189;51.240;9.964;2023-05-14T03:17:03;5.15;;;4.65;;
54909;SDS011;63189;51.240;9.964;2023-05-14T03:19:29;6.15;;;5.30;;
54909;SDS011;63189;51.240;9.964;2023-05-14T03:21:54;5.78;;;4.55;;
54909;SDS011;63189;51.240;9.964;2023-05-14T03:24:19;5.20;;;4.70;;
54909;SDS011;63189;51.240;9.964;2023-05-14T03:26:45;5.80;;;4.75;;
54909;SDS011;63189;51.240;9.964;2023-05-14T03:29:10;6.40;;;4.57;;
54909;SDS011;63189;51.240;9.964;2023-05-14T03:31:35;4.80;;;4.30;;
54909;SDS011;63189;51.240;9.964;2023-05-14T03:34:01;5.22;;;4.72;;
54909;SDS011;63189;51.240;9.964;2023-05-14T03:36:26;6.95;;;5.25;;
54909;SDS011;63189;51.240;9.964;2023-05-14T03:38:52;5.47;;;4.78;;
54909;SDS011;63189;51.240;9.964;2023-05-14T03:41:17;6.20;;;4.78;;
54909;SDS011;63189;51.240;9.964;2023-05-14T03:43:44;5.93;;;4.93;;
54909;SDS011;63189;51.240;9.964;2023-05-14T03:46:09;5.20;;;4.68;;
54909;SDS011;63189;51.240;9.964;2023-05-14T03:48:34;6.30;;;5.35;;
54909;SDS011;63189;51.240;9.964;2023-05-14T03:51:01;6.43;;;4.68;;
54909;SDS011;63189;51.240;9.964;2023-05-14T03:53:28;5.38;;;4.75;;
54909;SDS011;63189;51.240;9.964;2023-05-14T03:55:53;6.45;;;4.88;;
54909;SDS011;63189;51.240;9.964;2023-05-14T03:58:18;5.18;;;4.68;;
54909;SDS011;63189;51.240;9.964;2023-05-14T04:00:45;5.28;;;4.75;;
54909;SDS011;63189;51.240;9.964;2023-05-14T04:03:10;5.20;;;4.70;;
54909;SDS011;63189;51.240;9.964;2023-05-14T04:05:36;5.38;;;4.53;;
54909;SDS011;63189;51.240;9.964;2023-05-14T04:08:01;5.65;;;4.55;;
54909;SDS011;63189;51.240;9.964;2023-05-14T04:10:28;5.35;;;4.85;;
54909;SDS011;63189;51.240;9.964;2023-05-14T04:12:53;6.70;;;4.75;;
54909;SDS011;63189;51.240;9.964;2023-05-14T04:15:19;6.72;;;5.00;;
54909;SDS011;63189;51.240;9.964;2023-05-14T04:17:45;4.88;;;4.40;;
54909;SDS011;63189;51.240;9.964;2023-05-14T04:20:10;4.75;;;4.25;;
54909;SDS011;63189;51.240;9.964;2023-05-14T04:22:35;6.00;;;4.63;;
54909;SDS011;63189;51.240;9.964;2023-05-14T04:25:01;4.47;;;4.05;;
54909;SDS011;63189;51.240;9.964;2023-05-14T04:27:26;6.10;;;5.07;;
54909;SDS011;63189;51.240;9.964;2023-05-14T04:29:52;5.28;;;4.78;;
54909;SDS011;63189;51.240;9.964;2023-05-14T04:32:17;5.57;;;5.00;;
54909;SDS011;63189;51.240;9.964;2023-05-14T04:34:42;5.35;;;4.85;;
54909;SDS011;63189;51.240;9.964;2023-05-14T04:37:08;5.88;;;5.22;;
54909;SDS011;63189;51.240;9.964;2023-05-14T04:39:34;4.90;;;4.40;;
54909;SDS011;63189;51.240;9.964;2023-05-14T04:41:59;5.20;;;4.70;;
54909;SDS011;63189;51.240;9.964;2023-05-14T04:44:24;4.93;;;4.32;;
54909;SDS011;63189;51.240;9.964;2023-05-14T04:46:50;4.63;;;4.20;;
54909;SDS011;63189;51.240;9.964;2023-05-14T04:49:15;4.40;;;4.00;;
54909;SDS011;63189;51.240;9.964;2023-05-14T04:51:41;4.25;;;3.85;;
54909;SDS011;63189;51.240;9.964;2023-05-14T04:54:06;4.68;;;4.22;;
54909;SDS011;63189;51.240;9.964;2023-05-14T04:56:32;6.32;;;5.30;;
54909;SDS011;63189;51.240;9.964;2023-05-14T04:58:58;5.65;;;4.90;;
54909;SDS011;63189;51.240;9.964;2023-05-14T05:01:23;5.15;;;4.65;;
54909;SDS011;63189;51.240;9.964;2023-05-14T05:03:48;5.90;;;4.50;;
54909;SDS011;63189;51.240;9.964;2023-05-14T05:06:14;5.70;;;4.30;;
54909;SDS011;63189;51.240;9.964;2023-05-14T05:08:40;5.13;;;4.20;;
54909;SDS011;63189;51.240;9.964;2023-05-14T05:11:05;7.55;;;4.55;;
54909;SDS011;63189;51.240;9.964;2023-05-14T05:13:30;5.00;;;4.50;;
54909;SDS011;63189;51.240;9.964;2023-05-14T05:15:56;5.35;;;4.60;;
54909;SDS011;63189;51.240;9.964;2023-05-14T05:18:21;5.90;;;4.78;;
54909;SDS011;63189;51.240;9.964;2023-05-14T05:20:47;5.50;;;4.80;;
54909;SDS011;63189;51.240;9.964;2023-05-14T05:23:12;5.72;;;4.70;;
54909;SDS011;63189;51.240;9.964;2023-05-14T05:25:37;5.00;;;4.40;;
54909;SDS011;63189;51.240;9.964;2023-05-14T05:28:04;8.30;;;4.63;;
54909;SDS011;63189;51.240;9.964;2023-05-14T05:30:30;5.38;;;4.68;;
54909;SDS011;63189;51.240;9.964;2023-05-14T05:32:55;5.57;;;4.82;;
54909;SDS011;63189;51.240;9.964;2023-05-14T05:35:21;5.95;;;4.45;;
54909;SDS011;63189;51.240;9.964;2023-05-14T05:37:47;5.72;;;4.95;;
54909;SDS011;63189;51.240;9.964;2023-05-14T05:40:12;5.50;;;4.43;;
54909;SDS011;63189;51.240;9.964;2023-05-14T05:42:39;7.57;;;5.05;;
54909;SDS011;63189;51.240;9.964;2023-05-14T05:45:06;5.88;;;5.00;;
54909;SDS011;63189;51.240;9.964;2023-05-14T05:47:33;5.78;;;4.72;;
54909;SDS011;63189;51.240;9.964;2023-05-14T05:49:58;5.13;;;4.63;;
54909;SDS011;63189;51.240;9.964;2023-05-14T05:52:24;6.20;;;4.82;;
54909;SDS011;63189;51.240;9.964;2023-05-14T05:54:49;5.28;;;4.50;;
54909;SDS011;63189;51.240;9.964;2023-05-14T05:57:15;5.95;;;4.55;;
54909;SDS011;63189;51.240;9.964;2023-05-14T05:59:41;5.47;;;4.40;;
54909;SDS011;63189;51.240;9.964;2023-05-14T06:02:07;5.97;;;4.63;;
54909;SDS011;63189;51.240;9.964;2023-05-14T06:04:32;5.75;;;4.90;;
54909;SDS011;63189;51.240;9.964;2023-05-14T06:06:58;5.78;;;4.60;;
54909;SDS011;63189;51.240;9.964;2023-05-14T06:09:23;4.75;;;4.10;;
54909;SDS011;63189;51.240;9.964;2023-05-14T06:11:48;7.68;;;4.72;;
54909;SDS011;63189;51.240;9.964;2023-05-14T06:14:14;5.80;;;4.85;;
54909;SDS011;63189;51.240;9.964;2023-05-14T06:16:39;4.97;;;4.03;;
54909;SDS011;63189;51.240;9.964;2023-05-14T06:19:08;4.90;;;4.10;;
54909;SDS011;63189;51.240;9.964;2023-05-14T06:21:34;5.22;;;4.15;;
54909;SDS011;63189;51.240;9.964;2023-05-14T06:23:59;4.95;;;4.18;;
54909;SDS011;63189;51.240;9.964;2023-05-14T06:26:24;5.70;;;4.60;;
54909;SDS011;63189;51.240;9.964;2023-05-14T06:28:50;5.90;;;4.80;;
54909;SDS011;63189;51.240;9.964;2023-05-14T06:31:16;6.82;;;4.45;;
54909;SDS011;63189;51.240;9.964;2023-05-14T06:33:43;4.65;;;4.13;;
54909;SDS011;63189;51.240;9.964;2023-05-14T06:36:09;5.80;;;4.47;;
54909;SDS011;63189;51.240;9.964;2023-05-14T06:38:34;4.40;;;3.90;;
54909;SDS011;63189;51.240;9.964;2023-05-14T06:41:00;5.93;;;4.35;;
54909;SDS011;63189;51.240;9.964;2023-05-14T06:43:25;6.72;;;4.53;;
54909;SDS011;63189;51.240;9.964;2023-05-14T06:45:51;5.03;;;4.47;;
54909;SDS011;63189;51.240;9.964;2023-05-14T06:48:16;5.32;;;4.00;;
54909;SDS011;63189;51.240;9.964;2023-05-14T06:50:46;4.82;;;4.15;;
54909;SDS011;63189;51.240;9.964;2023-05-14T06:53:12;7.22;;;4.68;;
54909;SDS011;63189;51.240;9.964;2023-05-14T06:55:39;4.25;;;3.60;;
54909;SDS011;63189;51.240;9.964;2023-05-14T06:58:05;4.28;;;3.72;;
54909;SDS011;63189;51.240;9.964;2023-05-14T07:00:31;3.70;;;3.10;;
54909;SDS011;63189;51.240;9.964;2023-05-14T07:02:56;5.15;;;3.47;;
54909;SDS011;63189;51.240;9.964;2023-05-14T07:05:21;3.67;;;3.05;;
54909;SDS011;63189;51.240;9.964;2023-05-14T07:07:49;5.43;;;4.00;;
54909;SDS011;63189;51.240;9.964;2023-05-14T07:10:15;4.45;;;3.60;;
54909;SDS011;63189;51.240;9.964;2023-05-14T07:12:40;4.22;;;3.60;;
54909;SDS011;63189;51.240;9.964;2023-05-14T07:15:06;6.50;;;3.92;;
54909;SDS011;63189;51.240;9.964;2023-05-14T07:17:31;5.18;;;4.22;;
54909;SDS011;63189;51.240;9.964;2023-05-14T07:19:59;5.47;;;4.70;;
54909;SDS011;63189;51.240;9.964;2023-05-14T07:22:24;4.72;;;3.72;;
54909;SDS011;63189;51.240;9.964;2023-05-14T07:24:49;4.82;;;3.70;;
54909;SDS011;63189;51.240;9.964;2023-05-14T07:27:15;5.13;;;3.67;;
54909;SDS011;63189;51.240;9.964;2023-05-14T07:29:43;5.00;;;4.00;;
54909;SDS011;63189;51.240;9.964;2023-05-14T07:32:10;6.00;;;3.78;;
54909;SDS011;63189;51.240;9.964;2023-05-14T07:34:36;5.82;;;3.78;;
54909;SDS011;63189;51.240;9.964;2023-05-14T07:37:01;5.03;;;3.80;;
54909;SDS011;63189;51.240;9.964;2023-05-14T07:39:28;4.05;;;3.30;;
54909;SDS011;63189;51.240;9.964;2023-05-14T07:41:53;5.78;;;4.20;;
54909;SDS011;63189;51.240;9.964;2023-05-14T07:44:21;4.25;;;3.80;;
54909;SDS011;63189;51.240;9.964;2023-05-14T07:46:47;5.05;;;3.92;;
54909;SDS011;63189;51.240;9.964;2023-05-14T07:49:12;4.93;;;3.60;;
54909;SDS011;63189;51.240;9.964;2023-05-14T07:51:38;4.03;;;3.13;;
54909;SDS011;63189;51.240;9.964;2023-05-14T07:54:03;3.78;;;3.08;;
54909;SDS011;63189;51.240;9.964;2023-05-14T07:56:29;6.43;;;3.92;;
54909;SDS011;63189;51.240;9.964;2023-05-14T07:58:55;5.80;;;3.63;;
54909;SDS011;63189;51.240;9.964;2023-05-14T08:01:21;4.53;;;3.90;;
54909;SDS011;63189;51.240;9.964;2023-05-14T08:03:47;5.00;;;3.20;;
54909;SDS011;63189;51.240;9.964;2023-05-14T08:06:12;5.20;;;3.80;;
54909;SDS011;63189;51.240;9.964;2023-05-14T08:08:37;4.35;;;3.78;;
54909;SDS011;63189;51.240;9.964;2023-05-14T08:11:03;6.38;;;4.30;;
54909;SDS011;63189;51.240;9.964;2023-05-14T08:13:29;5.07;;;3.95;;
54909;SDS011;63189;51.240;9.964;2023-05-14T08:15:54;4.68;;;3.70;;
54909;SDS011;63189;51.240;9.964;2023-05-14T08:18:20;5.00;;;3.70;;
54909;SDS011;63189;51.240;9.964;2023-05-14T08:20:46;6.15;;;4.20;;
54909;SDS011;63189;51.240;9.964;2023-05-14T08:23:12;5.28;;;3.58;;
54909;SDS011;63189;51.240;9.964;2023-05-14T08:25:38;5.65;;;4.00;;
54909;SDS011;63189;51.240;9.964;2023-05-14T08:28:03;4.25;;;3.58;;
54909;SDS011;63189;51.240;9.964;2023-05-14T08:30:31;5.07;;;3.30;;
54909;SDS011;63189;51.240;9.964;2023-05-14T08:32:56;5.40;;;3.70;;
54909;SDS011;63189;51.240;9.964;2023-05-14T08:35:22;5.88;;;3.97;;
54909;SDS011;63189;51.240;9.964;2023-05-14T08:37:47;5.85;;;3.60;;
54909;SDS011;63189;51.240;9.964;2023-05-14T08:40:14;4.18;;;3.13;;
54909;SDS011;63189;51.240;9.964;2023-05-14T08:42:42;5.65;;;3.50;;
54909;SDS011;63189;51.240;9.964;2023-05-14T08:45:10;4.38;;;3.20;;
54909;SDS011;63189;51.240;9.964;2023-05-14T08:47:48;4.45;;;3.13;;
54909;SDS011;63189;51.240;9.964;2023-05-14T08:50:20;5.35;;;3.45;;
54909;SDS011;63189;51.240;9.964;2023-05-14T08:52:50;3.08;;;2.78;;
54909;SDS011;63189;51.240;9.964;2023-05-14T08:55:16;5.03;;;3.15;;
54909;SDS011;63189;51.240;9.964;2023-05-14T08:57:42;8.15;;;3.70;;
54909;SDS011;63189;51.240;9.964;2023-05-14T09:00:08;4.10;;;3.33;;
54909;SDS011;63189;51.240;9.964;2023-05-14T09:02:43;4.05;;;3.50;;
54909;SDS011;63189;51.240;9.964;2023-05-14T09:05:10;3.63;;;2.55;;
54909;SDS011;63189;51.240;9.964;2023-05-14T09:07:37;5.43;;;3.42;;
54909;SDS011;63189;51.240;9.964;2023-05-14T09:10:04;5.57;;;4.20;;
54909;SDS011;63189;51.240;9.964;2023-05-14T09:12:34;6.78;;;3.85;;
54909;SDS011;63189;51.240;9.964;2023-05-14T09:15:05;6.32;;;3.63;;
54909;SDS011;63189;51.240;9.964;2023-05-14T09:17:31;4.85;;;3.60;;
54909;SDS011;63189;51.240;9.964;2023-05-14T09:19:57;5.90;;;3.45;;
54909;SDS011;63189;51.240;9.964;2023-05-14T09:22:23;4.53;;;3.53;;
54909;SDS011;63189;51.240;9.964;2023-05-14T09:25:07;4.28;;;3.00;;
54909;SDS011;63189;51.240;9.964;2023-05-14T09:27:34;4.60;;;3.17;;
54909;SDS011;63189;51.240;9.964;2023-05-14T09:30:07;3.97;;;2.92;;
54909;SDS011;63189;51.240;9.964;2023-05-14T09:32:35;3.15;;;2.58;;
54909;SDS011;63189;51.240;9.964;2023-05-14T09:35:24;4.00;;;2.72;;
54909;SDS011;63189;51.240;9.964;2023-05-14T09:37:52;4.72;;;3.78;;
54909;SDS011;63189;51.240;9.964;2023-05-14T09:40:19;3.97;;;2.92;;
54909;SDS011;63189;51.240;9.964;2023-05-14T09:42:49;5.90;;;3.45;;
54909;SDS011;63189;51.240;9.964;2023-05-14T09:45:15;3.92;;;3.40;;
54909;SDS011;63189;51.240;9.964;2023-05-14T09:47:41;4.35;;;3.42;;
54909;SDS011;63189;51.240;9.964;2023-05-14T09:50:07;4.68;;;3.40;;
54909;SDS011;63189;51.240;9.964;2023-05-14T09:52:33;4.35;;;2.90;;
54909;SDS011;63189;51.240;9.964;2023-05-14T09:54:59;4.15;;;3.22;;
54909;SDS011;63189;51.240;9.964;2023-05-14T09:57:28;4.05;;;2.88;;
54909;SDS011;63189;51.240;9.964;2023-05-14T10:00:02;4.78;;;2.90;;
54909;SDS011;63189;51.240;9.964;2023-05-14T10:02:34;4.38;;;2.92;;
54909;SDS011;63189;51.240;9.964;2023-05-14T10:05:02;3.75;;;2.90;;
54909;SDS011;63189;51.240;9.964;2023-05-14T10:07:32;2.78;;;2.47;;
54909;SDS011;63189;51.240;9.964;2023-05-14T10:10:02;4.07;;;2.70;;
54909;SDS011;63189;51.240;9.964;2023-05-14T10:12:33;4.55;;;3.00;;
54909;SDS011;63189;51.240;9.964;2023-05-14T10:15:02;4.03;;;3.00;;
54909;SDS011;63189;51.240;9.964;2023-05-14T10:17:31;5.07;;;3.50;;
54909;SDS011;63189;51.240;9.964;2023-05-14T10:20:00;5.65;;;2.67;;
54909;SDS011;63189;51.240;9.964;2023-05-14T10:22:30;3.78;;;3.15;;
54909;SDS011;63189;51.240;9.964;2023-05-14T10:24:59;3.90;;;3.25;;
54909;SDS011;63189;51.240;9.964;2023-05-14T10:27:25;4.35;;;3.47;;
54909;SDS011;63189;51.240;9.964;2023-05-14T10:30:01;3.17;;;2.67;;
54909;SDS011;63189;51.240;9.964;2023-05-14T10:33:04;4.53;;;3.90;;
54909;SDS011;63189;51.240;9.964;2023-05-14T10:35:38;3.83;;;3.03;;
54909;SDS011;63189;51.240;9.964;2023-05-14T10:38:21;4.10;;;3.20;;
54909;SDS011;63189;51.240;9.964;2023-05-14T10:41:11;3.92;;;3.33;;
54909;SDS011;63189;51.240;9.964;2023-05-14T10:43:41;4.57;;;3.50;;
54909;SDS011;63189;51.240;9.964;2023-05-14T10:46:07;3.58;;;3.13;;
54909;SDS011;63189;51.240;9.964;2023-05-14T10:48:35;4.70;;;3.38;;
54909;SDS011;63189;51.240;9.964;2023-05-14T10:51:09;4.80;;;3.30;;
54909;SDS011;63189;51.240;9.964;2023-05-14T10:53:41;4.40;;;3.60;;
54909;SDS011;63189;51.240;9.964;2023-05-14T10:56:40;5.55;;;3.17;;
54909;SDS011;63189;51.240;9.964;2023-05-14T10:59:00;3.75;;;2.60;;
54909;SDS011;63189;51.240;9.964;2023-05-14T11:01:26;3.70;;;3.13;;
54909;SDS011;63189;51.240;9.964;2023-05-14T11:03:51;6.50;;;3.38;;
54909;SDS011;63189;51.240;9.964;2023-05-14T11:06:17;4.32;;;3.47;;
54909;SDS011;63189;51.240;9.964;2023-05-14T11:08:58;5.15;;;3.47;;
54909;SDS011;63189;51.240;9.964;2023-05-14T11:11:42;3.97;;;2.40;;
54909;SDS011;63189;51.240;9.964;2023-05-14T11:14:08;2.58;;;2.38;;
54909;SDS011;63189;51.240;9.964;2023-05-14T11:16:34;3.90;;;3.20;;
54909;SDS011;63189;51.240;9.964;2023-05-14T11:19:04;3.28;;;2.55;;
54909;SDS011;63189;51.240;9.964;2023-05-14T11:21:39;6.32;;;3.00;;
54909;SDS011;63189;51.240;9.964;2023-05-14T11:24:07;4.00;;;2.72;;
54909;SDS011;63189;51.240;9.964;2023-05-14T11:26:41;5.43;;;2.60;;
54909;SDS011;63189;51.240;9.964;2023-05-14T11:29:12;2.70;;;2.40;;
54909;SDS011;63189;51.240;9.964;2023-05-14T11:31:38;2.75;;;2.22;;
54909;SDS011;63189;51.240;9.964;2023-05-14T11:34:05;3.78;;;3.05;;
54909;SDS011;63189;51.240;9.964;2023-05-14T11:36:31;4.38;;;2.35;;
54909;SDS011;63189;51.240;9.964;2023-05-14T11:38:56;3.88;;;2.15;;
54909;SDS011;63189;51.240;9.964;2023-05-14T11:41:21;2.72;;;2.10;;
54909;SDS011;63189;51.240;9.964;2023-05-14T11:43:47;2.05;;;1.73;;
54909;SDS011;63189;51.240;9.964;2023-05-14T11:46:18;3.35;;;2.00;;
54909;SDS011;63189;51.240;9.964;2023-05-14T11:48:44;1.98;;;1.77;;
54909;SDS011;63189;51.240;9.964;2023-05-14T11:51:10;2.75;;;1.60;;
54909;SDS011;63189;51.240;9.964;2023-05-14T11:53:35;2.97;;;1.67;;
54909;SDS011;63189;51.240;9.964;2023-05-14T11:56:00;2.00;;;1.70;;
54909;SDS011;63189;51.240;9.964;2023-05-14T11:58:31;2.45;;;1.83;;
54909;SDS011;63189;51.240;9.964;2023-05-14T12:00:57;3.05;;;2.22;;
54909;SDS011;63189;51.240;9.964;2023-05-14T12:03:23;3.22;;;2.10;;
54909;SDS011;63189;51.240;9.964;2023-05-14T12:06:00;3.17;;;2.08;;
54909;SDS011;63189;51.240;9.964;2023-05-14T12:08:31;2.60;;;1.80;;
54909;SDS011;63189;51.240;9.964;2023-05-14T12:11:00;2.85;;;2.10;;
54909;SDS011;63189;51.240;9.964;2023-05-14T12:13:26;2.40;;;1.92;;
54909;SDS011;63189;51.240;9.964;2023-05-14T12:15:53;3.85;;;2.53;;
54909;SDS011;63189;51.240;9.964;2023-05-14T12:18:20;2.50;;;2.05;;
54909;SDS011;63189;51.240;9.964;2023-05-14T12:20:47;2.80;;;2.28;;
54909;SDS011;63189;51.240;9.964;2023-05-14T12:23:13;2.55;;;2.20;;
54909;SDS011;63189;51.240;9.964;2023-05-14T12:25:48;2.67;;;2.03;;
54909;SDS011;63189;51.240;9.964;2023-05-14T12:28:15;3.00;;;2.45;;
54909;SDS011;63189;51.240;9.964;2023-05-14T12:30:41;2.88;;;1.90;;
54909;SDS011;63189;51.240;9.964;2023-05-14T12:33:07;2.42;;;2.15;;
54909;SDS011;63189;51.240;9.964;2023-05-14T12:35:33;2.20;;;1.73;;
54909;SDS011;63189;51.240;9.964;2023-05-14T12:37:59;3.67;;;2.15;;
54909;SDS011;63189;51.240;9.964;2023-05-14T12:40:24;2.85;;;2.42;;
54909;SDS011;63189;51.240;9.964;2023-05-14T12:42:50;2.63;;;1.88;;
54909;SDS011;63189;51.240;9.964;2023-05-14T12:45:15;2.90;;;2.20;;
54909;SDS011;63189;51.240;9.964;2023-05-14T12:47:40;2.80;;;2.10;;
54909;SDS011;63189;51.240;9.964;2023-05-14T12:50:08;2.33;;;1.92;;
54909;SDS011;63189;51.240;9.964;2023-05-14T12:52:33;3.13;;;2.25;;
54909;SDS011;63189;51.240;9.964;2023-05-14T12:54:59;2.78;;;2.20;;
54909;SDS011;63189;51.240;9.964;2023-05-14T12:57:25;2.75;;;2.13;;
54909;SDS011;63189;51.240;9.964;2023-05-14T12:59:51;2.50;;;1.88;;
54909;SDS011;63189;51.240;9.964;2023-05-14T13:02:17;5.30;;;2.20;;
54909;SDS011;63189;51.240;9.964;2023-05-14T13:04:42;2.40;;;2.00;;
54909;SDS011;63189;51.240;9.964;2023-05-14T13:07:08;3.03;;;2.28;;
54909;SDS011;63189;51.240;9.964;2023-05-14T13:09:34;3.65;;;2.17;;
54909;SDS011;63189;51.240;9.964;2023-05-14T13:12:01;2.95;;;2.38;;
54909;SDS011;63189;51.240;9.964;2023-05-14T13:14:26;2.63;;;2.40;;
54909;SDS011;63189;51.240;9.964;2023-05-14T13:16:53;2.58;;;2.10;;
54909;SDS011;63189;51.240;9.964;2023-05-14T13:19:18;7.70;;;2.67;;
54909;SDS011;63189;51.240;9.964;2023-05-14T13:21:43;3.25;;;2.58;;
54909;SDS011;63189;51.240;9.964;2023-05-14T13:24:09;4.05;;;2.33;;
54909;SDS011;63189;51.240;9.964;2023-05-14T13:26:35;3.95;;;2.80;;
54909;SDS011;63189;51.240;9.964;2023-05-14T13:29:01;5.35;;;2.65;;
54909;SDS011;63189;51.240;9.964;2023-05-14T13:31:26;3.38;;;2.60;;
54909;SDS011;63189;51.240;9.964;2023-05-14T13:33:52;6.55;;;2.90;;
54909;SDS011;63189;51.240;9.964;2023-05-14T13:36:17;2.78;;;2.35;;
54909;SDS011;63189;51.240;9.964;2023-05-14T13:38:43;4.10;;;2.42;;
54909;SDS011;63189;51.240;9.964;2023-05-14T13:41:09;4.47;;;3.10;;
54909;SDS011;63189;51.240;9.964;2023-05-14T13:43:35;3.25;;;2.63;;
54909;SDS011;63189;51.240;9.964;2023-05-14T13:46:04;6.32;;;2.72;;
54909;SDS011;63189;51.240;9.964;2023-05-14T13:48:30;3.17;;;2.58;;
54909;SDS011;63189;51.240;9.964;2023-05-14T13:50:58;3.53;;;2.60;;
54909;SDS011;63189;51.240;9.964;2023-05-14T13:53:23;2.88;;;2.28;;
54909;SDS011;63189;51.240;9.964;2023-05-14T13:55:49;3.63;;;2.83;;
54909;SDS011;63189;51.240;9.964;2023-05-14T13:58:20;3.88;;;2.42;;
54909;SDS011;63189;51.240;9.964;2023-05-14T14:00:45;2.85;;;2.22;;
54909;SDS011;63189;51.240;9.964;2023-05-14T14:03:11;3.30;;;2.53;;
54909;SDS011;63189;51.240;9.964;2023-05-14T14:05:36;3.55;;;2.42;;
54909;SDS011;63189;51.240;9.964;2023-05-14T14:08:01;6.85;;;2.55;;
54909;SDS011;63189;51.240;9.964;2023-05-14T14:10:27;3.50;;;2.60;;
54909;SDS011;63189;51.240;9.964;2023-05-14T14:12:52;4.35;;;2.50;;
54909;SDS011;63189;51.240;9.964;2023-05-14T14:15:18;3.67;;;2.30;;
54909;SDS011;63189;51.240;9.964;2023-05-14T14:17:43;2.95;;;2.65;;
54909;SDS011;63189;51.240;9.964;2023-05-14T14:20:09;3.45;;;2.28;;
54909;SDS011;63189;51.240;9.964;2023-05-14T14:22:34;4.63;;;2.90;;
54909;SDS011;63189;51.240;9.964;2023-05-14T14:25:00;2.83;;;2.15;;
54909;SDS011;63189;51.240;9.964;2023-05-14T14:27:26;4.72;;;3.13;;
54909;SDS011;63189;51.240;9.964;2023-05-14T14:29:52;3.83;;;2.60;;
54909;SDS011;63189;51.240;9.964;2023-05-14T14:32:18;3.67;;;2.53;;
54909;SDS011;63189;51.240;9.964;2023-05-14T14:34:44;6.07;;;3.17;;
54909;SDS011;63189;51.240;9.964;2023-05-14T14:37:10;6.55;;;2.92;;
54909;SDS011;63189;51.240;9.964;2023-05-14T14:39:35;3.78;;;2.58;;
54909;SDS011;63189;51.240;9.964;2023-05-14T14:42:01;3.38;;;2.75;;
54909;SDS011;63189;51.240;9.964;2023-05-14T14:44:27;8.30;;;3.10;;
54909;SDS011;63189;51.240;9.964;2023-05-14T14:46:53;3.83;;;2.65;;
54909;SDS011;63189;51.240;9.964;2023-05-14T14:49:19;3.63;;;2.92;;
54909;SDS011;63189;51.240;9.964;2023-05-14T14:51:45;5.30;;;3.10;;
54909;SDS011;63189;51.240;9.964;2023-05-14T14:54:11;3.28;;;2.95;;
54909;SDS011;63189;51.240;9.964;2023-05-14T14:56:36;3.00;;;2.28;;
54909;SDS011;63189;51.240;9.964;2023-05-14T14:59:01;5.40;;;2.70;;
54909;SDS011;63189;51.240;9.964;2023-05-14T15:01:28;3.33;;;2.67;;